Bullhead City, Arizona
Current Conditions -  °F | °C
As of 5:35 AM on Wednesday 22 Oct 2014 (Local Time) from KIFP Reporting Station
Clear Clear  
Wind Chill: 66°   Ceiling: Unl
Heat Index: 66°   Visibility: 10mi
Dew Point: 36°   Wind: 5mph
Humidity: 32%   Direction: 90°E
Pressure: 29.89"   Gusts: NA
Location:  35.13°N, 114.57°W
Report Text: KIFP 221235Z AUTO 09004KT 10SM CLR 19/02 A2989 RMK AO2 PWINO
Loading
Personal Weather Stations






























Interactive Weather Map
Tropical Storm Tracking
New forecast layout! Learn more

10-Day Weather Forecast

Advertisements
Track Severe Weather on mobile